Ryoshin Maru — JD2464 — position and weather

sailwx.info

Track history (hours):
 
Tides and Currents Weather Stations Pressure Air Temp Water Temp Dewpoint Dewpoint Depression Visibility Wind Speed Wind Dir Waves Ship Positions

Ryoshin Maru

Last reported at 2018-Jun-18 03:54 UTC. Time now 2018-Jun-20 09:13 UTC.
Position N 34°42' E 134°32'.

Length 60 m; draft 3.5 m.

Type: Tanker. MMSI: 431000263.

Date/timePositionNaut miles runAvg speedWind from/ knotsBaromVisibWave heightAir tempDewpointWater temp
2018-Jun-18 03:54N 34°42' E 134°32'1311.5
2018-Jun-18 02:46N 34°42' E 134°48'3 0.1
2018-Jun-16 23:05N 34°43' E 134°51'2 7.0
2018-Jun-16 22:44N 34°41' E 134°49'2 9.3
2018-Jun-16 22:30N 34°39' E 134°50'610.5
2018-Jun-16 21:54N 34°37' E 134°57'410.7
2018-Jun-16 21:30N 34°37' E 135°03'4 8.9
2018-Jun-16 21:00N 34°33' E 135°05'611.9
2018-Jun-16 20:30N 34°27' E 135°03'611.4
2018-Jun-16 20:00N 34°21' E 135°01'510.9
2018-Jun-16 19:30N 34°16' E 134°59'511.0
2018-Jun-16 19:00N 34°11' E 134°59'612.3
2018-Jun-16 18:30N 34°05' E 134°60'612.4
2018-Jun-16 18:00N 33°58' E 135°00'611.4
2018-Jun-16 17:30N 33°53' E 135°02'2 0.1
2018-Jun-15 09:01N 33°51' E 135°03'010.6
2018-Jun-15 08:59N 33°51' E 135°03'711.1
2018-Jun-15 08:22N 33°56' E 134°57'511.3
2018-Jun-15 07:54N 34°00' E 134°53'511.6
2018-Jun-15 07:30N 34°04' E 134°49'1012.1
2018-Jun-15 06:42N 34°11' E 134°41'313.9
2018-Jun-15 06:30N 34°13' E 134°39'712.1
2018-Jun-15 05:54N 34°17' E 134°32'511.7
2018-Jun-15 05:31N 34°19' E 134°27'20 0.8
2018-Jun-14 04:38N 34°07' E 134°46'210.8
2018-Jun-14 04:29N 34°06' E 134°47'611.1
2018-Jun-14 03:58N 34°01' E 134°52'510.9
2018-Jun-14 03:30N 33°57' E 134°56'610.6
2018-Jun-14 02:59N 33°53' E 135°00'249 9.6
2018-Jun-13 00:53N 35°16' E 139°46'512.3
2018-Jun-13 00:30N 35°20' E 139°43'611.1
2018-Jun-13 00:00N 35°25' E 139°44'612.3
2018-Jun-12 23:30N 35°29' E 139°51'611.3
2018-Jun-12 23:00N 35°35' E 139°52'1 0.9
2018-Jun-12 22:24N 35°35' E 139°52'0 0.0
2018-Jun-12 11:56N 35°35' E 139°52'0 0.0
2018-Jun-12 08:38N 35°35' E 139°52'0 0.0
2018-Jun-11 23:14N 35°35' E 139°52'0 0.0
2018-Jun-11 16:47N 35°35' E 139°52'0 0.1
2018-Jun-11 16:26N 35°35' E 139°52'0 0.0
2018-Jun-11 15:59N 35°35' E 139°52'0 0.0
2018-Jun-11 15:26N 35°35' E 139°52'0 0.0
2018-Jun-11 14:56N 35°35' E 139°52'0 0.0
2018-Jun-11 14:23N 35°35' E 139°52'0 0.0
2018-Jun-11 13:59N 35°35' E 139°52'0 0.0
2018-Jun-11 13:26N 35°35' E 139°52'0 0.0
2018-Jun-11 12:59N 35°35' E 139°52'0 0.0
2018-Jun-11 12:29N 35°35' E 139°52'0 0.0
2018-Jun-11 11:26N 35°35' E 139°52'0 0.0
2018-Jun-11 10:56N 35°35' E 139°52'0 0.0
2018-Jun-11 10:26N 35°35' E 139°52'0 0.0
2018-Jun-11 08:14N 35°35' E 139°52'0 0.0
2018-Jun-10 05:06N 35°35' E 139°52'1 6.4
2018-Jun-10 05:00N 35°35' E 139°52'5 9.7
2018-Jun-10 04:28N 35°30' E 139°48'3 6.0
2018-Jun-10 04:00N 35°30' E 139°45'0 0.0
2018-Jun-10 03:30N 35°30' E 139°45'0 0.0
2018-Jun-10 01:24N 35°30' E 139°45'2 5.9
2018-Jun-10 01:00N 35°30' E 139°48'2 3.2
2018-Jun-10 00:28N 35°29' E 139°49'0 0.0
2018-Jun-09 23:58N 35°29' E 139°49'0 0.0
2018-Jun-09 23:28N 35°29' E 139°49'0 0.0
2018-Jun-09 22:58N 35°29' E 139°49'0 0.0
2018-Jun-09 22:28N 35°29' E 139°49'0 0.0
2018-Jun-09 21:58N 35°29' E 139°49'0 0.0
2018-Jun-09 21:28N 35°29' E 139°49'0 0.0
2018-Jun-09 20:55N 35°29' E 139°49'0 0.0
2018-Jun-09 20:28N 35°29' E 139°49'0 0.0
2018-Jun-09 19:55N 35°29' E 139°49'0 0.0
2018-Jun-09 19:25N 35°29' E 139°49'0 0.0
2018-Jun-09 18:58N 35°29' E 139°49'0 0.0
2018-Jun-09 18:28N 35°29' E 139°49'0 0.0
2018-Jun-09 17:55N 35°29' E 139°49'0 0.0
2018-Jun-09 17:25N 35°29' E 139°49'0 0.0
2018-Jun-09 16:58N 35°29' E 139°49'0 0.0
2018-Jun-09 15:40N 35°29' E 139°49'0 0.0
2018-Jun-09 15:19N 35°29' E 139°49'0 0.0
2018-Jun-09 14:25N 35°29' E 139°49'0 0.0
2018-Jun-09 13:01N 35°29' E 139°49'0 0.0
2018-Jun-09 12:49N 35°29' E 139°49'0 0.1
2018-Jun-09 12:28N 35°29' E 139°49'0 0.0
2018-Jun-09 11:52N 35°29' E 139°49'0 0.0
2018-Jun-09 11:25N 35°29' E 139°49'0 0.0
2018-Jun-09 10:55N 35°29' E 139°49'0 0.0
2018-Jun-09 08:37N 35°29' E 139°49'0 0.0
2018-Jun-09 08:25N 35°29' E 139°49'0 0.0
2018-Jun-09 07:55N 35°29' E 139°49'0 0.0
2018-Jun-09 07:28N 35°29' E 139°49'0 0.0
2018-Jun-09 06:49N 35°29' E 139°49'0 0.1
2018-Jun-09 06:13N 35°29' E 139°49'0 0.0
2018-Jun-09 05:55N 35°29' E 139°49'0 0.0
2018-Jun-09 05:19N 35°29' E 139°49'0 0.0
2018-Jun-09 04:58N 35°29' E 139°49'0 0.0
2018-Jun-09 04:28N 35°29' E 139°49'0 0.0
2018-Jun-09 03:55N 35°29' E 139°49'0 0.0
2018-Jun-09 03:25N 35°29' E 139°49'0 0.0
2018-Jun-09 01:58N 35°29' E 139°49'0 0.1
2018-Jun-09 01:25N 35°29' E 139°49'0 0.0
2018-Jun-09 00:49N 35°29' E 139°49'0 0.1
2018-Jun-09 00:25N 35°29' E 139°49'0 0.0
2018-Jun-08 22:01N 35°29' E 139°49'0 0.0
2018-Jun-08 21:52N 35°29' E 139°49'0 0.1
2018-Jun-08 21:28N 35°29' E 139°49'0 0.0
2018-Jun-08 20:52N 35°29' E 139°49'0 0.0
2018-Jun-08 20:28N 35°29' E 139°49'0 0.0
2018-Jun-08 19:58N 35°29' E 139°49'0 0.0
2018-Jun-08 19:25N 35°29' E 139°49'0 0.0
2018-Jun-08 18:55N 35°29' E 139°49'0 0.0
2018-Jun-08 18:19N 35°29' E 139°49'0 0.0
2018-Jun-08 17:52N 35°29' E 139°49'3 8.0
2018-Jun-08 17:30N 35°26' E 139°47'612.9
2018-Jun-08 17:00N 35°20' E 139°44'612.2
2018-Jun-08 16:29N 35°14' E 139°47'  
Track history (hours):
 
Tides and Currents Weather Stations Pressure Air Temp Water Temp Dewpoint Dewpoint Depression Visibility Wind Speed Wind Dir Waves Ship Positions

Ryoshin Maru

Last reported at 2018-Jun-18 03:54 UTC. Time now 2018-Jun-20 09:13 UTC.
Position N 34°42' E 134°32'.

Length 60 m; draft 3.5 m.

Type: Tanker. MMSI: 431000263.

Date/timePositionNaut miles runAvg speedWind from/ knotsBaromVisibWave heightAir tempDewpointWater temp
2018-Jun-18 03:54N 34°42' E 134°32'1311.5
2018-Jun-18 02:46N 34°42' E 134°48'3 0.1
2018-Jun-16 23:05N 34°43' E 134°51'2 7.0
2018-Jun-16 22:44N 34°41' E 134°49'2 9.3
2018-Jun-16 22:30N 34°39' E 134°50'610.5
2018-Jun-16 21:54N 34°37' E 134°57'410.7
2018-Jun-16 21:30N 34°37' E 135°03'4 8.9
2018-Jun-16 21:00N 34°33' E 135°05'611.9
2018-Jun-16 20:30N 34°27' E 135°03'611.4
2018-Jun-16 20:00N 34°21' E 135°01'510.9
2018-Jun-16 19:30N 34°16' E 134°59'511.0
2018-Jun-16 19:00N 34°11' E 134°59'612.3
2018-Jun-16 18:30N 34°05' E 134°60'612.4
2018-Jun-16 18:00N 33°58' E 135°00'611.4
2018-Jun-16 17:30N 33°53' E 135°02'2 0.1
2018-Jun-15 09:01N 33°51' E 135°03'010.6
2018-Jun-15 08:59N 33°51' E 135°03'711.1
2018-Jun-15 08:22N 33°56' E 134°57'511.3
2018-Jun-15 07:54N 34°00' E 134°53'511.6
2018-Jun-15 07:30N 34°04' E 134°49'1012.1
2018-Jun-15 06:42N 34°11' E 134°41'313.9
2018-Jun-15 06:30N 34°13' E 134°39'712.1
2018-Jun-15 05:54N 34°17' E 134°32'511.7
2018-Jun-15 05:31N 34°19' E 134°27'20 0.8
2018-Jun-14 04:38N 34°07' E 134°46'210.8
2018-Jun-14 04:29N 34°06' E 134°47'611.1
2018-Jun-14 03:58N 34°01' E 134°52'510.9
2018-Jun-14 03:30N 33°57' E 134°56'610.6
2018-Jun-14 02:59N 33°53' E 135°00'249 9.6
2018-Jun-13 00:53N 35°16' E 139°46'512.3
2018-Jun-13 00:30N 35°20' E 139°43'611.1
2018-Jun-13 00:00N 35°25' E 139°44'612.3
2018-Jun-12 23:30N 35°29' E 139°51'611.3
2018-Jun-12 23:00N 35°35' E 139°52'1 0.9
2018-Jun-12 22:24N 35°35' E 139°52'0 0.0
2018-Jun-12 11:56N 35°35' E 139°52'0 0.0
2018-Jun-12 08:38N 35°35' E 139°52'0 0.0
2018-Jun-11 23:14N 35°35' E 139°52'0 0.0
2018-Jun-11 16:47N 35°35' E 139°52'0 0.1
2018-Jun-11 16:26N 35°35' E 139°52'0 0.0
2018-Jun-11 15:59N 35°35' E 139°52'0 0.0
2018-Jun-11 15:26N 35°35' E 139°52'0 0.0
2018-Jun-11 14:56N 35°35' E 139°52'0 0.0
2018-Jun-11 14:23N 35°35' E 139°52'0 0.0
2018-Jun-11 13:59N 35°35' E 139°52'0 0.0
2018-Jun-11 13:26N 35°35' E 139°52'0 0.0
2018-Jun-11 12:59N 35°35' E 139°52'0 0.0
2018-Jun-11 12:29N 35°35' E 139°52'0 0.0
2018-Jun-11 11:26N 35°35' E 139°52'0 0.0
2018-Jun-11 10:56N 35°35' E 139°52'0 0.0
2018-Jun-11 10:26N 35°35' E 139°52'0 0.0
2018-Jun-11 08:14N 35°35' E 139°52'0 0.0
2018-Jun-10 05:06N 35°35' E 139°52'1 6.4
2018-Jun-10 05:00N 35°35' E 139°52'5 9.7
2018-Jun-10 04:28N 35°30' E 139°48'3 6.0
2018-Jun-10 04:00N 35°30' E 139°45'0 0.0
2018-Jun-10 03:30N 35°30' E 139°45'0 0.0
2018-Jun-10 01:24N 35°30' E 139°45'2 5.9
2018-Jun-10 01:00N 35°30' E 139°48'2 3.2
2018-Jun-10 00:28N 35°29' E 139°49'0 0.0
2018-Jun-09 23:58N 35°29' E 139°49'0 0.0
2018-Jun-09 23:28N 35°29' E 139°49'0 0.0
2018-Jun-09 22:58N 35°29' E 139°49'0 0.0
2018-Jun-09 22:28N 35°29' E 139°49'0 0.0
2018-Jun-09 21:58N 35°29' E 139°49'0 0.0
2018-Jun-09 21:28N 35°29' E 139°49'0 0.0
2018-Jun-09 20:55N 35°29' E 139°49'0 0.0
2018-Jun-09 20:28N 35°29' E 139°49'0 0.0
2018-Jun-09 19:55N 35°29' E 139°49'0 0.0
2018-Jun-09 19:25N 35°29' E 139°49'0 0.0
2018-Jun-09 18:58N 35°29' E 139°49'0 0.0
2018-Jun-09 18:28N 35°29' E 139°49'0 0.0
2018-Jun-09 17:55N 35°29' E 139°49'0 0.0
2018-Jun-09 17:25N 35°29' E 139°49'0 0.0
2018-Jun-09 16:58N 35°29' E 139°49'0 0.0
2018-Jun-09 15:40N 35°29' E 139°49'0 0.0
2018-Jun-09 15:19N 35°29' E 139°49'0 0.0
2018-Jun-09 14:25N 35°29' E 139°49'0 0.0
2018-Jun-09 13:01N 35°29' E 139°49'0 0.0
2018-Jun-09 12:49N 35°29' E 139°49'0 0.1
2018-Jun-09 12:28N 35°29' E 139°49'0 0.0
2018-Jun-09 11:52N 35°29' E 139°49'0 0.0
2018-Jun-09 11:25N 35°29' E 139°49'0 0.0
2018-Jun-09 10:55N 35°29' E 139°49'0 0.0
2018-Jun-09 08:37N 35°29' E 139°49'0 0.0
2018-Jun-09 08:25N 35°29' E 139°49'0 0.0
2018-Jun-09 07:55N 35°29' E 139°49'0 0.0
2018-Jun-09 07:28N 35°29' E 139°49'0 0.0
2018-Jun-09 06:49N 35°29' E 139°49'0 0.1
2018-Jun-09 06:13N 35°29' E 139°49'0 0.0
2018-Jun-09 05:55N 35°29' E 139°49'0 0.0
2018-Jun-09 05:19N 35°29' E 139°49'0 0.0
2018-Jun-09 04:58N 35°29' E 139°49'0 0.0
2018-Jun-09 04:28N 35°29' E 139°49'0 0.0
2018-Jun-09 03:55N 35°29' E 139°49'0 0.0
2018-Jun-09 03:25N 35°29' E 139°49'0 0.0
2018-Jun-09 01:58N 35°29' E 139°49'0 0.1
2018-Jun-09 01:25N 35°29' E 139°49'0 0.0
2018-Jun-09 00:49N 35°29' E 139°49'0 0.1
2018-Jun-09 00:25N 35°29' E 139°49'0 0.0
2018-Jun-08 22:01N 35°29' E 139°49'0 0.0
2018-Jun-08 21:52N 35°29' E 139°49'0 0.1
2018-Jun-08 21:28N 35°29' E 139°49'0 0.0
2018-Jun-08 20:52N 35°29' E 139°49'0 0.0
2018-Jun-08 20:28N 35°29' E 139°49'0 0.0
2018-Jun-08 19:58N 35°29' E 139°49'0 0.0
2018-Jun-08 19:25N 35°29' E 139°49'0 0.0
2018-Jun-08 18:55N 35°29' E 139°49'0 0.0
2018-Jun-08 18:19N 35°29' E 139°49'0 0.0
2018-Jun-08 17:52N 35°29' E 139°49'3 8.0
2018-Jun-08 17:30N 35°26' E 139°47'612.9
2018-Jun-08 17:00N 35°20' E 139°44'612.2
2018-Jun-08 16:29N 35°14' E 139°47'  

Dump ship's entire track history